Urb Costa Esmeralda, Puerto Rico
Current Conditions -  °F | °C
As of 11:53 PM on Thursday 27 Nov 2014 (Local Time) from TJNR Reporting Station
Few Clouds Few Clouds  
Wind Chill: 73°   Ceiling: Unl
Heat Index: 73°   Visibility: 10mi
Dew Point: 70°   Wind: 0mph
Humidity: 90%   Direction: NA
Pressure: 29.98"   Gusts: NA
Location:  18.2667°N, 65.6476°W
Report Text: TJNR 280353Z AUTO 00000KT 10SM FEW039 23/21 A2998 RMK AO2 SLP151 T02280211 402940222 $
Loading
Personal Weather Stations






























Interactive Weather Map New forecast layout! Learn more

10-Day Weather Forecast

Advertisements
Track Severe Weather on mobile